Time;durP1;ratioP1;P1;durP2;ratioP2;P2;SDS_P1;SDS_P2;PMS_P1;PMS_P2;Temp;Humidity;BMP_temperature;BMP_pressure;BME280_temperature;BME280_humidity;BME280_pressure;Samples;Min_cycle;Max_cycle;Signal;HPM_P1;HPM_P2
2023/07/31 00:01:34;;;;;;;;;2.25;1.25;;;;;17.67;85.34;100855.66;5045755;28;8827;-66
2023/07/31 00:04:01;;;;;;;;;1.00;1.00;;;;;17.68;85.38;100849.16;5046067;28;8859;-67
2023/07/31 00:06:27;;;;;;;;;2.00;2.00;;;;;17.71;85.19;100854.13;5043276;28;8838;-66
2023/07/31 00:08:54;;;;;;;;;2.50;2.50;;;;;17.72;85.40;100841.31;5027627;28;8861;-67
2023/07/31 00:11:21;;;;;;;;;0.00;0.00;;;;;17.69;85.22;100842.63;5031095;28;8839;-67
2023/07/31 00:13:47;;;;;;;;;3.00;1.00;;;;;17.70;85.50;100844.31;5051090;28;8854;-67
2023/07/31 00:16:14;;;;;;;;;3.75;2.25;;;;;17.69;85.63;100836.34;5047802;28;9550;-66
2023/07/31 00:18:40;;;;;;;;;1.00;1.00;;;;;17.69;85.58;100849.97;5041226;28;8839;-66
2023/07/31 00:21:07;;;;;;;;;2.00;1.25;;;;;17.69;85.67;100849.97;5047423;28;8857;-67
2023/07/31 00:23:33;;;;;;;;;1.75;0.75;;;;;17.70;86.01;100852.47;5030604;28;8855;-67
2023/07/31 00:26:00;;;;;;;;;1.75;1.75;;;;;17.71;85.84;100835.06;5049472;28;8992;-67
2023/07/31 00:28:28;;;;;;;;;1.00;1.00;;;;;17.73;85.77;100845.69;5049477;28;8839;-67
2023/07/31 00:30:55;;;;;;;;;2.25;2.25;;;;;17.72;85.53;100831.25;5034278;28;8870;-66
2023/07/31 00:33:25;;;;;;;;;2.25;1.50;;;;;17.72;85.78;100828.53;5050886;28;8837;-66
2023/07/31 00:35:51;;;;;;;;;2.50;1.50;;;;;17.74;85.73;100831.00;5045811;28;8908;-66
2023/07/31 00:38:18;;;;;;;;;2.00;1.00;;;;;17.72;85.79;100833.97;5042296;28;8833;-67
2023/07/31 00:40:44;;;;;;;;;1.00;1.00;;;;;17.70;85.75;100813.50;5028906;28;8968;-67
2023/07/31 00:43:10;;;;;;;;;2.25;1.00;;;;;17.71;86.09;100826.06;5044530;28;8847;-66
2023/07/31 00:45:37;;;;;;;;;1.00;1.00;;;;;17.73;86.16;100830.19;5025949;28;8904;-66
2023/07/31 00:48:06;;;;;;;;;1.00;1.00;;;;;17.74;86.19;100831.00;5049405;28;8819;-66
2023/07/31 00:50:35;;;;;;;;;5.00;3.00;;;;;17.71;86.18;100826.91;5050262;28;9526;-67
2023/07/31 00:53:02;;;;;;;;;2.25;1.75;;;;;17.68;86.51;100832.00;5028697;28;8819;-67
2023/07/31 00:55:29;;;;;;;;;5.00;0.00;;;;;17.68;86.54;100829.28;5047042;28;8831;-67
2023/07/31 00:57:56;;;;;;;;;4.25;2.75;;;;;17.69;86.86;100825.47;5044068;28;8924;-66
2023/07/31 01:00:22;;;;;;;;;3.50;2.00;;;;;17.66;86.97;100820.50;5029829;28;8846;-66
2023/07/31 01:02:51;;;;;;;;;3.50;3.00;;;;;17.64;87.01;100822.66;5048744;28;8819;-67
2023/07/31 01:05:36;;;;;;;;;1.00;1.00;;;;;17.62;86.93;100825.59;5033381;28;8822;-67
2023/07/31 01:08:33;;;;;;;;;2.50;2.50;;;;;17.59;87.19;100828.81;5044026;28;8852;-68
2023/07/31 01:11:07;;;;;;;;;4.00;2.25;;;;;17.56;87.58;100829.31;5016350;28;8819;-67
2023/07/31 01:13:35;;;;;;;;;3.00;3.00;;;;;17.55;87.73;100827.66;5014486;28;8831;-67
2023/07/31 01:16:02;;;;;;;;;3.00;3.00;;;;;17.53;87.98;100816.16;5045128;28;8857;-66
2023/07/31 01:18:28;;;;;;;;;2.50;2.25;;;;;17.55;88.22;100814.88;5032460;28;8831;-67
2023/07/31 01:21:11;;;;;;;;;2.75;2.50;;;;;17.55;87.77;100812.16;5014518;28;9532;-66
2023/07/31 01:24:03;;;;;;;;;3.50;2.75;;;;;17.55;87.78;100809.44;5030589;28;8841;-66
2023/07/31 01:26:34;;;;;;;;;4.00;3.00;;;;;17.55;87.38;100803.16;5043517;28;8957;-66
2023/07/31 01:29:10;;;;;;;;;2.25;2.25;;;;;17.53;88.00;100816.16;5033234;28;8815;-66
2023/07/31 01:31:39;;;;;;;;;4.50;4.50;;;;;17.52;87.80;100801.72;5037727;28;8844;-66
2023/07/31 01:34:08;;;;;;;;;3.25;3.25;;;;;17.49;88.15;100799.47;5045943;28;8896;-66
2023/07/31 01:36:35;;;;;;;;;2.75;2.00;;;;;17.48;88.48;100802.47;5048085;28;8817;-67
2023/07/31 01:39:03;;;;;;;;;7.00;3.00;;;;;17.47;87.74;100800.81;5036376;28;8839;-67
2023/07/31 01:41:30;;;;;;;;;6.00;4.50;;;;;17.39;88.14;100798.47;5040536;28;8924;-67
2023/07/31 01:43:57;;;;;;;;;10.25;7.50;;;;;17.37;88.74;100795.97;5048631;28;8936;-66
2023/07/31 01:46:23;;;;;;;;;4.00;4.00;;;;;17.41;88.68;100794.41;5040466;28;8841;-67
2023/07/31 01:48:50;;;;;;;;;4.75;3.50;;;;;17.40;88.63;100789.22;5026230;28;8831;-67
2023/07/31 01:51:17;;;;;;;;;3.25;2.50;;;;;17.43;88.65;100789.59;5046066;28;8977;-67
2023/07/31 01:53:43;;;;;;;;;3.75;3.75;;;;;17.43;88.45;100786.84;5046043;28;8898;-66
2023/07/31 01:56:09;;;;;;;;;2.75;2.75;;;;;17.44;89.07;100782.25;5044774;28;8849;-66
2023/07/31 01:58:36;;;;;;;;;6.00;4.25;;;;;17.45;88.82;100781.16;5035910;28;8842;-66
2023/07/31 02:01:02;;;;;;;;;4.00;3.00;;;;;17.44;88.67;100779.53;5025779;28;8847;-66
2023/07/31 02:03:29;;;;;;;;;6.00;6.00;;;;;17.44;88.71;100779.53;5048578;28;9617;-67
2023/07/31 02:05:56;;;;;;;;;6.25;5.00;;;;;17.49;88.86;100782.34;5048812;28;8969;-65
2023/07/31 02:08:24;;;;;;;;;7.00;5.50;;;;;17.50;88.51;100778.53;5031414;28;8842;-65
2023/07/31 02:10:51;;;;;;;;;6.50;4.75;;;;;17.51;88.59;100764.72;5043061;28;8827;-65
2023/07/31 02:13:18;;;;;;;;;6.00;5.50;;;;;17.46;88.68;100761.88;5044981;28;8968;-66
2023/07/31 02:15:45;;;;;;;;;7.75;4.25;;;;;17.49;88.52;100758.66;5033369;28;8819;-66
2023/07/31 02:18:12;;;;;;;;;7.00;3.75;;;;;17.53;88.68;100762.56;5045297;28;8831;-66
2023/07/31 02:20:38;;;;;;;;;8.25;4.50;;;;;17.55;88.39;100757.72;5036001;28;8873;-65
2023/07/31 02:23:05;;;;;;;;;10.00;6.00;;;;;17.54;88.51;100750.63;5037378;28;8878;-65
2023/07/31 02:25:31;;;;;;;;;5.50;5.50;;;;;17.55;88.40;100767.78;5035338;28;8865;-65
2023/07/31 02:27:58;;;;;;;;;7.25;6.75;;;;;17.51;88.37;100761.97;5052334;28;8843;-66
2023/07/31 02:30:24;;;;;;;;;9.33;8.00;;;;;17.52;88.56;100760.91;5018751;28;8850;-66
2023/07/31 02:32:51;;;;;;;;;6.33;5.33;;;;;17.52;88.44;100758.19;5032290;28;9009;-67
2023/07/31 02:35:18;;;;;;;;;7.75;6.00;;;;;17.50;88.34;100748.59;5034593;28;9164;-67
2023/07/31 02:37:45;;;;;;;;;6.25;6.00;;;;;17.48;88.20;100756.19;5050423;28;8831;-67
2023/07/31 02:40:12;;;;;;;;;5.50;5.00;;;;;17.48;88.71;100759.75;5035252;28;8831;-67
2023/07/31 02:42:39;;;;;;;;;5.00;4.00;;;;;17.48;88.68;100750.75;5047320;28;8830;-66
2023/07/31 02:45:06;;;;;;;;;9.33;7.67;;;;;17.45;88.20;100737.63;5035212;28;8831;-66
2023/07/31 02:47:32;;;;;;;;;7.33;6.00;;;;;17.41;88.64;100741.91;5018866;28;8907;-67
2023/07/31 02:49:59;;;;;;;;;10.33;8.00;;;;;17.42;88.60;100740.81;5052309;28;8899;-66
2023/07/31 02:55:15;;;;;;;;;8.00;6.00;;;;;17.41;88.70;100741.91;4929942;29;8911;-66
2023/07/31 02:57:41;;;;;;;;;10.67;9.00;;;;;17.44;88.59;100738.69;4912328;29;9124;-67
2023/07/31 03:00:09;;;;;;;;;7.00;6.00;;;;;17.41;88.79;100733.72;4930830;29;8982;-67
2023/07/31 03:02:36;;;;;;;;;7.33;7.33;;;;;17.38;88.61;100726.03;4913748;29;8828;-66
2023/07/31 03:05:02;;;;;;;;;5.00;5.00;;;;;17.38;88.64;100736.94;4914539;29;9880;-67
2023/07/31 03:07:30;;;;;;;;;6.33;5.00;;;;;17.35;88.64;100724.66;4899306;29;8953;-67
2023/07/31 03:09:56;;;;;;;;;6.00;5.25;;;;;17.35;88.64;100726.56;4898942;29;8956;-67
2023/07/31 03:12:23;;;;;;;;;7.25;5.75;;;;;17.36;88.68;100728.19;4895269;29;8848;-67
2023/07/31 03:14:49;;;;;;;;;8.67;7.00;;;;;17.34;88.79;100730.31;4913513;29;8899;-66
2023/07/31 03:17:16;;;;;;;;;5.75;5.50;;;;;17.33;88.93;100734.13;4916186;29;9332;-67
2023/07/31 03:19:42;;;;;;;;;6.00;4.00;;;;;17.35;88.56;100729.28;4909304;29;9551;-68
2023/07/31 03:22:09;;;;;;;;;5.00;5.00;;;;;17.38;88.65;100726.03;4906889;29;8844;-66
2023/07/31 03:24:35;;;;;;;;;4.75;4.50;;;;;17.38;88.50;100720.59;4913014;29;8844;-67
2023/07/31 03:27:02;;;;;;;;;8.00;5.00;;;;;17.40;88.64;100723.91;4898589;29;8867;-68
2023/07/31 03:29:28;;;;;;;;;6.67;5.00;;;;;17.37;88.47;100716.25;4911101;29;8989;-67
2023/07/31 03:31:55;;;;;;;;;11.00;8.33;;;;;17.37;88.48;100724.41;4896498;29;8944;-67
2023/07/31 03:34:21;;;;;;;;;5.67;5.67;;;;;17.36;88.05;100718.13;4914972;29;8943;-68
2023/07/31 03:36:48;;;;;;;;;5.50;5.50;;;;;17.40;87.94;100723.91;4915622;29;8937;-68
2023/07/31 03:39:15;;;;;;;;;5.25;4.00;;;;;17.44;88.31;100714.22;4905554;29;8956;-67
2023/07/31 03:41:41;;;;;;;;;7.00;5.33;;;;;17.44;88.11;100712.31;4913516;29;8861;-68
2023/07/31 03:44:08;;;;;;;;;3.33;3.33;;;;;17.45;87.98;100713.94;4898545;29;8951;-68
2023/07/31 03:46:35;;;;;;;;;9.67;8.33;;;;;17.42;87.94;100706.28;4898649;29;9091;-68
2023/07/31 03:49:03;;;;;;;;;10.00;7.00;;;;;17.42;87.95;100700.84;4915772;29;9107;-68
2023/07/31 03:51:29;;;;;;;;;6.00;6.00;;;;;17.41;88.07;100695.63;4915268;29;9019;-68
2023/07/31 03:53:56;;;;;;;;;5.33;5.33;;;;;17.41;87.85;100690.19;4916913;29;9937;-68
2023/07/31 03:56:23;;;;;;;;;6.00;6.00;;;;;17.38;87.91;100691.53;4911831;29;9181;-68
2023/07/31 03:58:49;;;;;;;;;7.00;7.00;;;;;17.37;87.97;100689.84;4913420;29;8942;-68
2023/07/31 04:01:16;;;;;;;;;5.67;5.33;;;;;17.37;87.89;100683.59;4898283;29;8938;-68
2023/07/31 04:03:43;;;;;;;;;9.50;8.00;;;;;17.36;88.13;100680.03;4912838;29;8988;-68
2023/07/31 04:06:10;;;;;;;;;7.00;6.67;;;;;17.37;87.98;100669.97;4896793;29;8835;-68
2023/07/31 04:08:36;;;;;;;;;7.75;7.75;;;;;17.34;88.21;100670.47;4902043;29;8950;-68
2023/07/31 04:11:03;;;;;;;;;5.75;5.25;;;;;17.30;88.05;100670.97;4909364;29;8906;-68
2023/07/31 04:13:30;;;;;;;;;10.00;6.00;;;;;17.28;88.29;100667.66;4913124;29;8863;-69
2023/07/31 04:15:56;;;;;;;;;8.25;5.25;;;;;17.28;88.34;100678.53;4912752;29;8921;-68
2023/07/31 04:18:25;;;;;;;;;6.67;4.67;;;;;17.26;88.47;100672.53;4914603;29;9533;-68
2023/07/31 04:20:51;;;;;;;;;6.33;6.33;;;;;17.26;88.75;100666.25;4914032;29;9033;-68
2023/07/31 04:23:18;;;;;;;;;7.00;7.00;;;;;17.26;88.90;100667.09;4914926;29;9012;-67
2023/07/31 04:25:44;;;;;;;;;6.33;6.33;;;;;17.29;88.80;100663.84;4913713;29;8946;-68
2023/07/31 04:28:11;;;;;;;;;9.67;6.00;;;;;17.27;88.61;100666.00;4909302;29;8998;-68
2023/07/31 04:30:38;;;;;;;;;6.00;5.33;;;;;17.26;88.73;100664.38;4914483;29;8931;-68
2023/07/31 04:33:05;;;;;;;;;7.00;5.25;;;;;17.29;88.76;100654.88;4902506;29;8940;-68
2023/07/31 04:35:32;;;;;;;;;8.25;6.75;;;;;17.23;88.61;100662.13;4914673;29;8851;-69
2023/07/31 04:37:58;;;;;;;;;6.00;6.00;;;;;17.19;89.00;100663.69;4908125;29;8870;-68
2023/07/31 04:40:25;;;;;;;;;6.75;6.75;;;;;17.20;89.48;100670.75;4895058;29;9167;-67
2023/07/31 04:42:51;;;;;;;;;8.00;7.25;;;;;17.19;88.90;100657.41;4911936;29;9656;-68
2023/07/31 04:45:18;;;;;;;;;6.50;6.00;;;;;17.18;89.51;100656.59;4911416;29;8839;-69
2023/07/31 04:47:44;;;;;;;;;6.33;6.00;;;;;17.19;89.77;100652.78;4906102;29;8876;-68
2023/07/31 04:50:11;;;;;;;;;6.25;6.25;;;;;17.22;89.44;100648.78;4913565;29;9064;-67
2023/07/31 04:52:37;;;;;;;;;3.00;3.00;;;;;17.25;89.55;100643.66;4909323;29;8847;-69
2023/07/31 04:55:04;;;;;;;;;5.00;5.00;;;;;17.22;88.97;100638.72;4913352;29;8938;-68
2023/07/31 04:57:30;;;;;;;;;6.75;5.00;;;;;17.18;89.56;100645.72;4931003;29;8935;-68
2023/07/31 04:59:57;;;;;;;;;3.00;3.00;;;;;17.21;89.85;100633.50;4917670;29;8851;-68
2023/07/31 05:02:24;;;;;;;;;3.25;2.75;;;;;17.22;89.80;100635.16;4910231;29;8884;-68
2023/07/31 05:04:51;;;;;;;;;5.25;3.50;;;;;17.22;89.88;100627.84;4911874;29;8907;-69
2023/07/31 05:07:17;;;;;;;;;3.25;2.00;;;;;17.20;89.90;100637.28;4914144;29;8847;-68
2023/07/31 05:09:44;;;;;;;;;4.00;3.00;;;;;17.21;89.99;100628.06;4911435;29;8867;-67
2023/07/31 05:12:10;;;;;;;;;2.25;2.25;;;;;17.18;90.01;100625.84;4910557;29;8998;-69
2023/07/31 05:14:37;;;;;;;;;3.00;3.00;;;;;17.18;90.24;100629.38;4913544;29;8847;-68
2023/07/31 05:17:03;;;;;;;;;2.25;2.00;;;;;17.21;90.34;100623.44;4912510;29;8847;-68
2023/07/31 05:19:30;;;;;;;;;3.00;3.00;;;;;17.22;90.40;100624.28;4912343;29;8856;-67
2023/07/31 05:21:56;;;;;;;;;3.00;2.75;;;;;17.21;90.48;100619.91;4911079;29;8940;-68
2023/07/31 05:24:23;;;;;;;;;3.75;3.25;;;;;17.19;90.48;100608.44;4912597;29;8930;-69
2023/07/31 05:26:49;;;;;;;;;2.00;2.00;;;;;17.20;90.62;100608.19;4913092;29;8839;-68
2023/07/31 05:29:16;;;;;;;;;2.00;2.00;;;;;17.22;90.40;100608.78;4897054;29;8839;-68
2023/07/31 05:31:43;;;;;;;;;1.25;1.25;;;;;17.21;90.51;100600.84;4905913;29;8867;-68
2023/07/31 05:34:09;;;;;;;;;1.00;1.00;;;;;17.20;90.45;100601.94;4911432;29;8903;-69
2023/07/31 05:36:36;;;;;;;;;1.00;1.00;;;;;17.10;90.29;100601.75;4912791;29;8872;-67
2023/07/31 05:39:06;;;;;;;;;1.75;1.00;;;;;17.10;91.00;100593.59;4913946;29;8836;-69
2023/07/31 05:41:33;;;;;;;;;2.00;2.00;;;;;17.01;90.95;100587.69;4912405;29;8878;-69
2023/07/31 05:43:59;;;;;;;;;2.00;2.00;;;;;16.99;91.24;100593.41;4909713;29;9005;-69
2023/07/31 05:46:26;;;;;;;;;0.75;0.75;;;;;16.90;90.92;100591.31;4912015;29;8867;-68
2023/07/31 05:48:52;;;;;;;;;2.75;1.75;;;;;16.84;91.56;100593.09;4910617;29;8852;-69
2023/07/31 05:51:19;;;;;;;;;3.50;1.00;;;;;16.87;91.66;100584.47;4916482;29;8953;-68
2023/07/31 05:53:45;;;;;;;;;0.75;0.75;;;;;16.84;91.41;100587.66;4914710;29;8919;-68
2023/07/31 05:56:12;;;;;;;;;2.75;1.00;;;;;16.82;91.71;100581.66;4913500;29;8887;-68
2023/07/31 05:58:38;;;;;;;;;2.25;2.25;;;;;16.78;91.75;100586.75;4908534;29;8870;-67
2023/07/31 06:01:05;;;;;;;;;1.25;1.25;;;;;16.75;92.15;100579.06;4916197;29;8856;-68
2023/07/31 06:03:31;;;;;;;;;2.75;2.75;;;;;16.79;91.99;100585.66;4920878;29;8976;-68
2023/07/31 06:05:58;;;;;;;;;1.00;1.00;;;;;16.81;91.97;100579.97;4911276;29;8854;-68
2023/07/31 06:08:25;;;;;;;;;1.00;1.00;;;;;16.74;91.55;100588.28;4916317;29;9760;-67
2023/07/31 06:10:51;;;;;;;;;1.75;1.00;;;;;16.73;92.70;100583.94;4917384;29;8839;-68
2023/07/31 06:13:17;;;;;;;;;0.25;0.25;;;;;16.73;93.02;100574.91;4898607;29;8844;-68
2023/07/31 06:15:44;;;;;;;;;2.00;2.00;;;;;16.76;92.61;100564.38;4919367;29;8845;-69
2023/07/31 06:18:11;;;;;;;;;1.00;1.00;;;;;16.82;92.94;100570.78;4919739;29;8960;-69
2023/07/31 06:20:40;;;;;;;;;0.00;0.00;;;;;16.87;92.39;100564.59;4919266;29;8895;-68
2023/07/31 06:23:06;;;;;;;;;1.00;1.00;;;;;16.82;92.56;100569.94;4913285;29;8852;-68
2023/07/31 06:25:33;;;;;;;;;1.25;1.25;;;;;16.80;92.53;100559.31;4916866;29;8877;-69
2023/07/31 06:27:59;;;;;;;;;1.75;1.75;;;;;16.77;92.52;100563.34;4919644;29;8855;-68
2023/07/31 06:30:26;;;;;;;;;0.75;0.75;;;;;16.76;93.06;100558.94;4900992;29;8835;-68
2023/07/31 06:32:53;;;;;;;;;2.00;2.00;;;;;16.84;93.07;100557.75;4913656;29;8864;-69
2023/07/31 06:35:19;;;;;;;;;0.75;0.00;;;;;16.85;93.05;100553.94;4916438;29;8961;-69
2023/07/31 06:37:46;;;;;;;;;1.00;1.00;;;;;16.85;93.06;100553.94;4919532;29;8849;-69
2023/07/31 06:40:12;;;;;;;;;1.00;1.00;;;;;16.88;92.61;100541.78;4917210;29;8851;-68
2023/07/31 06:42:39;;;;;;;;;0.00;0.00;;;;;16.90;93.12;100539.66;4903657;29;8844;-69
2023/07/31 06:45:06;;;;;;;;;0.00;0.00;;;;;16.89;93.03;100535.25;4911079;29;8851;-69
2023/07/31 06:47:33;;;;;;;;;1.00;0.50;;;;;16.90;93.02;100539.66;4919407;29;8848;-69
2023/07/31 06:49:59;;;;;;;;;1.00;1.00;;;;;16.91;92.68;100535.84;4919208;29;8875;-69
2023/07/31 06:52:26;;;;;;;;;0.75;0.75;;;;;16.93;92.89;100533.72;4910698;29;8857;-67
2023/07/31 06:55:17;;;;;;;;;0.00;0.00;;;;;16.91;93.14;100527.69;4933801;29;9709;-69
2023/07/31 06:57:44;;;;;;;;;0.25;0.25;;;;;16.89;93.16;100532.53;4898739;29;8881;-68
2023/07/31 07:00:11;;;;;;;;;0.00;0.00;;;;;16.94;93.39;100524.50;4917243;29;8846;-68
2023/07/31 07:02:37;;;;;;;;;0.00;0.00;;;;;16.98;93.21;100533.81;4899274;29;8866;-69
2023/07/31 07:05:04;;;;;;;;;0.00;0.00;;;;;16.98;93.19;100528.38;4923201;29;8854;-69
2023/07/31 07:07:30;;;;;;;;;0.00;0.00;;;;;16.97;93.41;100522.09;4930060;29;9057;-68
2023/07/31 07:09:59;;;;;;;;;0.00;0.00;;;;;16.96;93.75;100525.91;4929363;29;8858;-69
2023/07/31 07:12:29;;;;;;;;;0.00;0.00;;;;;17.02;93.87;100526.81;4915227;29;8842;-69
2023/07/31 07:14:55;;;;;;;;;0.00;0.00;;;;;17.04;93.76;100527.41;4930926;29;8864;-69
2023/07/31 07:17:22;;;;;;;;;0.00;0.00;;;;;17.01;93.89;100519.72;4903119;29;8863;-69
2023/07/31 07:19:48;;;;;;;;;0.00;0.00;;;;;17.02;94.36;100522.22;4915973;29;8835;-69
2023/07/31 07:22:15;;;;;;;;;0.00;0.00;;;;;17.04;94.20;100527.41;4916135;29;8836;-69
2023/07/31 07:24:41;;;;;;;;;0.00;0.00;;;;;17.07;94.08;100526.09;4913267;29;8886;-68
2023/07/31 07:27:08;;;;;;;;;0.00;0.00;;;;;17.10;94.36;100525.59;4904207;29;8945;-70
2023/07/31 07:29:35;;;;;;;;;0.00;0.00;;;;;17.15;94.44;100521.06;4915422;29;8839;-70
2023/07/31 07:32:01;;;;;;;;;0.00;0.00;;;;;17.19;94.16;100527.66;4914042;29;8843;-69
2023/07/31 07:34:28;;;;;;;;;0.00;0.00;;;;;17.18;94.30;100526.03;4915504;29;8839;-68
2023/07/31 07:36:55;;;;;;;;;0.00;0.00;;;;;17.17;94.25;100523.53;4914874;29;8867;-69
2023/07/31 07:39:21;;;;;;;;;0.00;0.00;;;;;17.20;94.53;100523.06;4914916;29;8835;-70
2023/07/31 07:41:48;;;;;;;;;0.75;0.75;;;;;17.22;94.54;100527.19;4896752;29;8866;-69
2023/07/31 07:44:14;;;;;;;;;0.00;0.00;;;;;17.24;94.49;100525.03;4896839;29;8898;-69
2023/07/31 07:46:41;;;;;;;;;0.00;0.00;;;;;17.28;94.58;100519.91;4896874;29;8838;-70
2023/07/31 07:49:08;;;;;;;;;0.00;0.00;;;;;17.26;94.68;100522.09;4896959;29;8936;-69
2023/07/31 07:51:35;;;;;;;;;0.00;0.00;;;;;17.26;94.92;100520.19;4900862;29;9559;-69
2023/07/31 07:54:01;;;;;;;;;0.00;0.00;;;;;17.32;94.97;100512.91;4914311;29;9147;-69
2023/07/31 07:56:28;;;;;;;;;0.00;0.00;;;;;17.34;94.78;100510.78;4910955;29;8883;-69
2023/07/31 07:58:54;;;;;;;;;0.00;0.00;;;;;17.40;94.83;100512.50;4915229;29;8942;-68
2023/07/31 08:01:21;;;;;;;;;0.00;0.00;;;;;17.43;95.04;100514.75;4914091;29;9541;-69
2023/07/31 08:03:47;;;;;;;;;0.00;0.00;;;;;17.46;95.03;100516.13;4915357;29;8836;-69
2023/07/31 08:06:14;;;;;;;;;0.00;0.00;;;;;17.48;95.19;100514.00;4915426;29;8870;-70
2023/07/31 08:08:41;;;;;;;;;0.00;0.00;;;;;17.48;95.21;100511.28;4897944;29;8863;-69
2023/07/31 08:11:07;;;;;;;;;0.00;0.00;;;;;17.52;95.42;100504.25;4907826;29;8965;-70
2023/07/31 08:13:34;;;;;;;;;0.00;0.00;;;;;17.53;95.16;100495.00;4895290;29;8940;-69
2023/07/31 08:16:00;;;;;;;;;0.00;0.00;;;;;17.53;95.24;100497.75;4897855;29;8818;-68
2023/07/31 08:18:27;;;;;;;;;0.00;0.00;;;;;17.54;95.61;100492.06;4896510;29;8838;-69
2023/07/31 08:20:53;;;;;;;;;0.00;0.00;;;;;17.57;95.47;100507.06;4894967;29;8884;-69
2023/07/31 08:23:20;;;;;;;;;0.00;0.00;;;;;17.56;95.70;100499.97;4895298;29;8872;-68
2023/07/31 08:25:46;;;;;;;;;0.00;0.00;;;;;17.53;95.87;100501.28;4898260;29;8831;-68
2023/07/31 08:28:13;;;;;;;;;0.00;0.00;;;;;17.57;96.10;100498.88;4914091;29;9596;-68
2023/07/31 08:30:40;;;;;;;;;0.00;0.00;;;;;17.57;96.25;100495.34;4911076;29;9714;-69
2023/07/31 08:33:06;;;;;;;;;0.00;0.00;;;;;17.64;96.72;100493.28;4915265;29;8867;-69
2023/07/31 08:35:33;;;;;;;;;0.00;0.00;;;;;17.68;96.92;100487.09;4915329;29;8867;-68
2023/07/31 08:37:59;;;;;;;;;0.00;0.00;;;;;17.69;96.75;100485.19;4914025;29;9589;-69
2023/07/31 08:40:26;;;;;;;;;0.00;0.00;;;;;17.69;96.33;100494.16;4910825;29;9391;-69
2023/07/31 08:42:56;;;;;;;;;1.00;0.00;;;;;17.74;96.65;100491.56;4914918;29;8855;-68
2023/07/31 08:45:23;;;;;;;;;1.00;0.00;;;;;17.74;96.85;100497.03;4915048;29;8958;-69
2023/07/31 08:47:51;;;;;;;;;0.00;0.00;;;;;17.77;96.70;100495.69;4915232;29;8832;-69
2023/07/31 08:50:20;;;;;;;;;0.00;0.00;;;;;17.79;97.04;100499.81;4913750;29;8895;-69
2023/07/31 08:52:49;;;;;;;;;0.00;0.00;;;;;17.79;96.78;100490.81;4914608;29;8824;-69
2023/07/31 08:55:16;;;;;;;;;0.00;0.00;;;;;17.79;97.08;100494.38;4913793;29;8851;-69
2023/07/31 08:57:43;;;;;;;;;0.00;0.00;;;;;17.79;97.08;100494.38;4897601;29;8830;-68
2023/07/31 09:00:10;;;;;;;;;0.00;0.00;;;;;17.82;97.25;100498.47;4914254;29;8835;-68
2023/07/31 09:02:45;;;;;;;;;0.50;0.50;;;;;17.86;96.84;100496.06;4913575;29;9806;-69
2023/07/31 09:05:12;;;;;;;;;0.00;0.00;;;;;17.83;97.24;100496.59;4913514;29;9595;-68
2023/07/31 09:07:40;;;;;;;;;0.00;0.00;;;;;17.83;97.58;100491.16;4913936;29;8836;-68
2023/07/31 09:10:07;;;;;;;;;0.75;0.75;;;;;17.82;97.56;100493.03;4914030;29;8828;-69
2023/07/31 09:12:34;;;;;;;;;0.25;0.25;;;;;17.84;97.43;100490.06;4913163;29;8859;-69
2023/07/31 09:15:01;;;;;;;;;0.00;0.00;;;;;17.84;97.77;100490.88;4914508;29;8926;-69
2023/07/31 09:17:31;;;;;;;;;1.00;1.00;;;;;17.83;97.48;100489.25;4913282;29;8875;-69
2023/07/31 09:19:58;;;;;;;;;0.00;0.00;;;;;17.89;97.79;100487.41;4914159;29;8971;-69
2023/07/31 09:22:35;;;;;;;;;1.00;0.00;;;;;17.88;96.95;100497.47;4913001;29;8866;-69
2023/07/31 09:25:26;;;;;;;;;1.00;1.00;;;;;17.86;97.24;100483.28;4902668;29;8964;-69
2023/07/31 09:28:04;;;;;;;;;1.00;1.00;;;;;17.84;97.19;100484.63;4888173;29;8841;-68
2023/07/31 09:30:31;;;;;;;;;1.00;1.00;;;;;17.84;97.56;100485.44;4913959;29;8836;-68
2023/07/31 09:33:03;;;;;;;;;2.00;2.00;;;;;17.87;97.56;100475.97;4896494;29;8940;-69
2023/07/31 09:35:32;;;;;;;;;1.00;1.00;;;;;17.90;97.55;100489.03;4913051;29;8844;-69
2023/07/31 09:38:02;;;;;;;;;2.00;2.00;;;;;17.88;97.49;100488.50;4924555;29;8842;-69
2023/07/31 09:40:31;;;;;;;;;1.00;1.00;;;;;17.86;97.61;100485.19;4915896;29;9666;-69
2023/07/31 09:43:00;;;;;;;;;1.75;1.00;;;;;17.87;97.96;100495.84;4914118;29;8995;-70
2023/07/31 09:45:27;;;;;;;;;1.25;0.00;;;;;17.92;98.01;100487.72;4913969;29;9541;-69
2023/07/31 09:48:12;;;;;;;;;0.00;0.00;;;;;17.98;97.69;100488.63;4894024;29;8952;-68
2023/07/31 09:50:40;;;;;;;;;2.00;1.00;;;;;18.03;98.01;100483.25;4912370;29;8856;-69
2023/07/31 09:53:08;;;;;;;;;2.50;1.25;;;;;18.08;97.41;100477.88;4896989;29;8840;-69
2023/07/31 09:55:36;;;;;;;;;3.00;1.25;;;;;18.03;97.65;100473.19;4913996;29;8913;-69
2023/07/31 09:58:05;;;;;;;;;0.25;0.25;;;;;18.05;97.94;100472.91;4914147;29;8910;-69
2023/07/31 10:00:32;;;;;;;;;0.25;0.25;;;;;18.09;97.99;100476.78;4913888;29;9639;-68
2023/07/31 10:03:01;;;;;;;;;3.00;1.00;;;;;18.13;97.63;100477.09;4908928;29;8890;-69
2023/07/31 10:05:35;;;;;;;;;1.25;0.75;;;;;18.15;97.29;100478.50;4911581;29;8842;-69
2023/07/31 10:08:01;;;;;;;;;1.25;1.00;;;;;18.14;97.57;100474.13;4912556;29;8888;-68
2023/07/31 10:10:28;;;;;;;;;2.50;2.00;;;;;18.11;97.65;100477.38;4913451;29;8827;-69
2023/07/31 10:12:56;;;;;;;;;4.00;2.00;;;;;18.12;97.87;100481.72;4913775;29;8839;-70
2023/07/31 10:15:24;;;;;;;;;3.00;1.00;;;;;18.18;98.14;100477.97;4913885;29;8950;-70
2023/07/31 10:17:52;;;;;;;;;1.00;1.00;;;;;18.25;98.22;100484.06;4912487;29;8855;-69
2023/07/31 10:20:18;;;;;;;;;4.00;2.00;;;;;18.32;97.76;100475.72;4909972;29;8828;-70
2023/07/31 10:22:46;;;;;;;;;2.25;1.00;;;;;18.32;97.31;100477.63;4913077;29;8839;-69
2023/07/31 10:25:13;;;;;;;;;1.25;1.25;;;;;18.34;97.54;100473.53;4898165;29;8859;-69
2023/07/31 10:27:39;;;;;;;;;2.00;2.00;;;;;18.40;97.43;100475.25;4924127;29;8948;-70
2023/07/31 10:30:10;;;;;;;;;0.75;0.75;;;;;18.41;97.10;100476.91;4913205;29;8918;-69
2023/07/31 10:32:40;;;;;;;;;1.25;1.25;;;;;18.36;97.00;100473.31;4917862;29;9670;-69
2023/07/31 10:35:08;;;;;;;;;1.00;1.00;;;;;18.38;97.04;100471.13;4920360;29;8836;-69
2023/07/31 10:37:41;;;;;;;;;2.75;1.50;;;;;18.31;97.10;100468.63;4915383;29;8910;-70
2023/07/31 10:40:13;;;;;;;;;1.00;1.00;;;;;18.33;97.16;100471.09;4912834;29;8889;-69
2023/07/31 10:42:52;;;;;;;;;1.25;1.25;;;;;18.34;96.84;100475.44;4914296;29;8835;-70
2023/07/31 10:45:31;;;;;;;;;1.00;1.00;;;;;18.33;96.87;100482.81;4915496;29;8954;-68
2023/07/31 10:48:00;;;;;;;;;1.25;1.25;;;;;18.39;97.06;100481.81;4917986;29;8941;-70
2023/07/31 10:50:29;;;;;;;;;1.00;1.00;;;;;18.42;96.70;100477.72;4915740;29;8858;-69
2023/07/31 10:53:03;;;;;;;;;1.75;1.75;;;;;18.45;96.51;100469.88;4907663;29;8978;-70
2023/07/31 10:55:38;;;;;;;;;3.25;2.75;;;;;18.45;96.69;100471.78;4929033;29;8872;-70
2023/07/31 10:58:07;;;;;;;;;0.00;0.00;;;;;18.46;96.26;100476.13;4921428;29;8848;-69
2023/07/31 11:00:37;;;;;;;;;3.75;2.00;;;;;18.45;96.29;100463.59;4910724;29;8816;-70
2023/07/31 11:03:06;;;;;;;;;3.75;1.00;;;;;18.45;96.35;100467.13;4910144;29;8971;-70
2023/07/31 11:05:51;;;;;;;;;2.00;2.00;;;;;18.49;95.98;100470.19;4907263;29;8924;-69
2023/07/31 11:08:22;;;;;;;;;1.00;1.00;;;;;18.50;95.86;100475.38;4893967;29;8857;-68
2023/07/31 11:11:04;;;;;;;;;2.50;2.00;;;;;18.51;95.97;100473.47;4911603;29;8851;-68
2023/07/31 11:13:40;;;;;;;;;2.00;1.00;;;;;18.56;96.09;100465.34;4914362;29;8866;-69
2023/07/31 11:16:07;;;;;;;;;2.00;2.00;;;;;18.55;95.65;100469.13;4912813;29;8856;-71
2023/07/31 11:18:34;;;;;;;;;1.00;1.00;;;;;18.53;95.70;100466.69;4918111;29;8862;-68
2023/07/31 11:21:01;;;;;;;;;2.00;2.00;;;;;18.57;95.84;100471.63;4900429;29;9774;-70
2023/07/31 11:23:27;;;;;;;;;1.25;1.25;;;;;18.58;95.78;100457.72;4916845;29;9652;-69
2023/07/31 11:25:59;;;;;;;;;2.75;1.50;;;;;18.62;95.35;100450.69;4916296;29;8840;-68
2023/07/31 11:28:26;;;;;;;;;0.25;0.25;;;;;18.64;95.32;100455.91;4923133;29;8938;-68
2023/07/31 11:30:55;;;;;;;;;3.00;2.00;;;;;18.51;94.79;100451.66;4920966;29;8946;-68
2023/07/31 11:33:22;;;;;;;;;2.00;2.00;;;;;18.45;95.05;100445.34;4923470;29;8873;-68
2023/07/31 11:35:49;;;;;;;;;2.75;2.00;;;;;18.48;94.88;100446.72;4929707;29;8853;-68
2023/07/31 11:38:23;;;;;;;;;2.00;1.00;;;;;18.48;94.62;100442.09;4925283;29;8835;-68
2023/07/31 11:40:50;;;;;;;;;3.75;2.00;;;;;18.49;94.82;100451.91;4926417;29;8825;-70